sensor_id;sensor_type;location;lat;lon;timestamp;pressure;altitude;pressure_sealevel;temperature;humidity
77793;BME280;66983;51.438;5.438;2023-12-28T00:01:56;100840.78;;;11.45;100.00
77793;BME280;66983;51.438;5.438;2023-12-28T00:04:21;100832.72;;;11.46;100.00
77793;BME280;66983;51.438;5.438;2023-12-28T00:06:47;100835.38;;;11.46;100.00
77793;BME280;66983;51.438;5.438;2023-12-28T00:09:12;100842.53;;;11.46;100.00
77793;BME280;66983;51.438;5.438;2023-12-28T00:11:38;100829.25;;;11.44;100.00
77793;BME280;66983;51.438;5.438;2023-12-28T00:14:04;100847.06;;;11.44;100.00
77793;BME280;66983;51.438;5.438;2023-12-28T00:16:33;100842.69;;;11.43;100.00
77793;BME280;66983;51.438;5.438;2023-12-28T00:18:59;100849.72;;;11.44;100.00
77793;BME280;66983;51.438;5.438;2023-12-28T00:21:27;100851.34;;;11.48;100.00
77793;BME280;66983;51.438;5.438;2023-12-28T00:23:53;100856.59;;;11.49;100.00
77793;BME280;66983;51.438;5.438;2023-12-28T00:26:18;100855.88;;;11.46;100.00
77793;BME280;66983;51.438;5.438;2023-12-28T00:28:50;100864.63;;;11.49;100.00
77793;BME280;66983;51.438;5.438;2023-12-28T00:31:15;100865.53;;;11.48;100.00
77793;BME280;66983;51.438;5.438;2023-12-28T00:33:41;100868.16;;;11.50;100.00
77793;BME280;66983;51.438;5.438;2023-12-28T00:36:08;100883.03;;;11.55;100.00
77793;BME280;66983;51.438;5.438;2023-12-28T00:38:33;100876.72;;;11.58;100.00
77793;BME280;66983;51.438;5.438;2023-12-28T00:40:59;100874.97;;;11.57;100.00
77793;BME280;66983;51.438;5.438;2023-12-28T00:43:24;100897.13;;;11.59;100.00
77793;BME280;66983;51.438;5.438;2023-12-28T00:45:50;100877.53;;;11.60;100.00
77793;BME280;66983;51.438;5.438;2023-12-28T00:48:15;100874.91;;;11.59;100.00
77793;BME280;66983;51.438;5.438;2023-12-28T00:50:41;100888.19;;;11.60;100.00
77793;BME280;66983;51.438;5.438;2023-12-28T00:53:07;100882.13;;;11.56;100.00
77793;BME280;66983;51.438;5.438;2023-12-28T00:55:33;100902.47;;;11.59;100.00
77793;BME280;66983;51.438;5.438;2023-12-28T00:57:58;100884.78;;;11.56;100.00
77793;BME280;66983;51.438;5.438;2023-12-28T01:00:24;100898.06;;;11.58;100.00
77793;BME280;66983;51.438;5.438;2023-12-28T01:02:50;100895.34;;;11.60;100.00
77793;BME280;66983;51.438;5.438;2023-12-28T01:05:16;100905.94;;;11.61;100.00
77793;BME280;66983;51.438;5.438;2023-12-28T01:07:42;100898.88;;;11.60;100.00
77793;BME280;66983;51.438;5.438;2023-12-28T01:10:07;100899.69;;;11.62;100.00
77793;BME280;66983;51.438;5.438;2023-12-28T01:12:33;100894.34;;;11.62;100.00
77793;BME280;66983;51.438;5.438;2023-12-28T01:14:59;100892.59;;;11.61;100.00
77793;BME280;66983;51.438;5.438;2023-12-28T01:17:24;100890.31;;;11.52;100.00
77793;BME280;66983;51.438;5.438;2023-12-28T01:19:50;100896.88;;;11.65;100.00
77793;BME280;66983;51.438;5.438;2023-12-28T01:22:15;100905.69;;;11.67;100.00
77793;BME280;66983;51.438;5.438;2023-12-28T01:24:41;100906.63;;;11.66;100.00
77793;BME280;66983;51.438;5.438;2023-12-28T01:27:07;100918.13;;;11.68;100.00
77793;BME280;66983;51.438;5.438;2023-12-28T01:29:32;100909.44;;;11.63;100.00
77793;BME280;66983;51.438;5.438;2023-12-28T01:32:03;100908.31;;;11.69;100.00
77793;BME280;66983;51.438;5.438;2023-12-28T01:34:29;100920.97;;;11.64;100.00
77793;BME280;66983;51.438;5.438;2023-12-28T01:36:54;100924.38;;;11.67;100.00
77793;BME280;66983;51.438;5.438;2023-12-28T01:39:20;100917.97;;;11.71;100.00
77793;BME280;66983;51.438;5.438;2023-12-28T01:41:46;100920.44;;;11.76;100.00
77793;BME280;66983;51.438;5.438;2023-12-28T01:44:11;100933.63;;;11.80;100.00
77793;BME280;66983;51.438;5.438;2023-12-28T01:46:37;100918.47;;;11.81;100.00
77793;BME280;66983;51.438;5.438;2023-12-28T01:49:03;100921.09;;;11.82;100.00
77793;BME280;66983;51.438;5.438;2023-12-28T01:51:30;100917.63;;;11.80;100.00
77793;BME280;66983;51.438;5.438;2023-12-28T01:53:57;100924.00;;;11.76;100.00
77793;BME280;66983;51.438;5.438;2023-12-28T01:56:24;100931.09;;;11.77;100.00
77793;BME280;66983;51.438;5.438;2023-12-28T01:58:51;100925.69;;;11.79;100.00
77793;BME280;66983;51.438;5.438;2023-12-28T02:01:18;100931.91;;;11.79;100.00
77793;BME280;66983;51.438;5.438;2023-12-28T02:03:45;100946.25;;;11.77;100.00
77793;BME280;66983;51.438;5.438;2023-12-28T02:06:13;100931.13;;;11.76;100.00
77793;BME280;66983;51.438;5.438;2023-12-28T02:08:41;100930.22;;;11.77;100.00
77793;BME280;66983;51.438;5.438;2023-12-28T02:11:07;100935.59;;;11.75;100.00
77793;BME280;66983;51.438;5.438;2023-12-28T02:13:34;100933.69;;;11.79;100.00
77793;BME280;66983;51.438;5.438;2023-12-28T02:18:56;100923.09;;;11.77;100.00
77793;BME280;66983;51.438;5.438;2023-12-28T02:21:28;100930.25;;;11.75;100.00
77793;BME280;66983;51.438;5.438;2023-12-28T02:23:53;100938.16;;;11.78;100.00
77793;BME280;66983;51.438;5.438;2023-12-28T02:26:19;100938.03;;;11.81;100.00
77793;BME280;66983;51.438;5.438;2023-12-28T02:28:46;100929.22;;;11.79;100.00
77793;BME280;66983;51.438;5.438;2023-12-28T02:31:30;100936.44;;;11.77;100.00
77793;BME280;66983;51.438;5.438;2023-12-28T02:34:08;100926.69;;;11.76;100.00
77793;BME280;66983;51.438;5.438;2023-12-28T02:36:36;100910.00;;;11.70;100.00
77793;BME280;66983;51.438;5.438;2023-12-28T02:39:05;100925.75;;;11.77;100.00
77793;BME280;66983;51.438;5.438;2023-12-28T02:41:33;100932.84;;;11.78;100.00
77793;BME280;66983;51.438;5.438;2023-12-28T02:43:59;100945.38;;;11.76;100.00
77793;BME280;66983;51.438;5.438;2023-12-28T02:46:25;100931.91;;;11.79;100.00
77793;BME280;66983;51.438;5.438;2023-12-28T02:48:50;100931.03;;;11.79;100.00
77793;BME280;66983;51.438;5.438;2023-12-28T02:51:18;100921.34;;;11.76;100.00
77793;BME280;66983;51.438;5.438;2023-12-28T02:53:43;100935.56;;;11.77;100.00
77793;BME280;66983;51.438;5.438;2023-12-28T02:56:09;100916.88;;;11.77;100.00
77793;BME280;66983;51.438;5.438;2023-12-28T02:58:34;100920.41;;;11.77;100.00
77793;BME280;66983;51.438;5.438;2023-12-28T03:01:00;100930.16;;;11.78;100.00
77793;BME280;66983;51.438;5.438;2023-12-28T03:03:25;100934.56;;;11.79;100.00
77793;BME280;66983;51.438;5.438;2023-12-28T03:05:51;100917.63;;;11.80;100.00
77793;BME280;66983;51.438;5.438;2023-12-28T03:08:16;100923.03;;;11.79;100.00
77793;BME280;66983;51.438;5.438;2023-12-28T03:10:42;100928.28;;;11.80;100.00
77793;BME280;66983;51.438;5.438;2023-12-28T03:13:08;100921.28;;;11.78;100.00
77793;BME280;66983;51.438;5.438;2023-12-28T03:15:33;100884.72;;;11.58;100.00
77793;BME280;66983;51.438;5.438;2023-12-28T03:17:59;100915.09;;;11.76;100.00
77793;BME280;66983;51.438;5.438;2023-12-28T03:20:24;100908.88;;;11.75;100.00
77793;BME280;66983;51.438;5.438;2023-12-28T03:22:50;100917.84;;;11.74;100.00
77793;BME280;66983;51.438;5.438;2023-12-28T03:25:15;100916.00;;;11.76;100.00
77793;BME280;66983;51.438;5.438;2023-12-28T03:27:41;100905.31;;;11.76;100.00
77793;BME280;66983;51.438;5.438;2023-12-28T03:30:07;100907.06;;;11.77;100.00
77793;BME280;66983;51.438;5.438;2023-12-28T03:32:33;100924.00;;;11.76;100.00
77793;BME280;66983;51.438;5.438;2023-12-28T03:34:58;100927.94;;;11.68;100.00
77793;BME280;66983;51.438;5.438;2023-12-28T03:37:24;100933.84;;;11.74;100.00
77793;BME280;66983;51.438;5.438;2023-12-28T03:39:49;100935.50;;;11.78;100.00
77793;BME280;66983;51.438;5.438;2023-12-28T03:42:15;100936.44;;;11.77;100.00
77793;BME280;66983;51.438;5.438;2023-12-28T03:44:40;100924.00;;;11.76;100.00
77793;BME280;66983;51.438;5.438;2023-12-28T03:47:06;100922.25;;;11.75;100.00
77793;BME280;66983;51.438;5.438;2023-12-28T03:49:31;100917.84;;;11.74;100.00
77793;BME280;66983;51.438;5.438;2023-12-28T03:51:57;100932.84;;;11.78;100.00
77793;BME280;66983;51.438;5.438;2023-12-28T03:54:22;100928.41;;;11.77;100.00
77793;BME280;66983;51.438;5.438;2023-12-28T03:56:48;100927.56;;;11.77;100.00
77793;BME280;66983;51.438;5.438;2023-12-28T03:59:14;100929.22;;;11.79;100.00
77793;BME280;66983;51.438;5.438;2023-12-28T04:01:43;100926.44;;;11.82;100.00
77793;BME280;66983;51.438;5.438;2023-12-28T04:04:09;100924.56;;;11.84;100.00
77793;BME280;66983;51.438;5.438;2023-12-28T04:06:35;100928.03;;;11.86;100.00
77793;BME280;66983;51.438;5.438;2023-12-28T04:09:01;100940.47;;;11.87;100.00
77793;BME280;66983;51.438;5.438;2023-12-28T04:11:26;100944.06;;;11.86;100.00
77793;BME280;66983;51.438;5.438;2023-12-28T04:13:52;100936.06;;;11.86;100.00
77793;BME280;66983;51.438;5.438;2023-12-28T04:16:17;100936.97;;;11.85;100.00
77793;BME280;66983;51.438;5.438;2023-12-28T04:18:43;100933.50;;;11.83;100.00
77793;BME280;66983;51.438;5.438;2023-12-28T04:21:13;100954.75;;;11.86;100.00
77793;BME280;66983;51.438;5.438;2023-12-28T04:23:40;100928.91;;;11.87;100.00
77793;BME280;66983;51.438;5.438;2023-12-28T04:26:07;100929.66;;;11.91;100.00
77793;BME280;66983;51.438;5.438;2023-12-28T04:28:33;100934.88;;;11.94;100.00
77793;BME280;66983;51.438;5.438;2023-12-28T04:31:06;100931.38;;;11.92;100.00
77793;BME280;66983;51.438;5.438;2023-12-28T04:33:31;100931.25;;;11.95;100.00
77793;BME280;66983;51.438;5.438;2023-12-28T04:36:03;100927.50;;;11.99;100.00
77793;BME280;66983;51.438;5.438;2023-12-28T04:38:29;100925.63;;;12.01;100.00
77793;BME280;66983;51.438;5.438;2023-12-28T04:40:55;100919.47;;;11.99;100.00
77793;BME280;66983;51.438;5.438;2023-12-28T04:43:21;100923.88;;;12.00;100.00
77793;BME280;66983;51.438;5.438;2023-12-28T04:45:50;100918.47;;;12.01;100.00
77793;BME280;66983;51.438;5.438;2023-12-28T04:48:15;100931.84;;;12.01;100.00
77793;BME280;66983;51.438;5.438;2023-12-28T04:50:41;100930.09;;;12.00;100.00
77793;BME280;66983;51.438;5.438;2023-12-28T04:53:06;100935.50;;;11.99;100.00
77793;BME280;66983;51.438;5.438;2023-12-28T04:55:32;100948.66;;;12.03;100.00
77793;BME280;66983;51.438;5.438;2023-12-28T04:57:57;100930.91;;;12.02;100.00
77793;BME280;66983;51.438;5.438;2023-12-28T05:00:23;100949.53;;;12.04;100.00
77793;BME280;66983;51.438;5.438;2023-12-28T05:02:49;100942.59;;;12.00;100.00
77793;BME280;66983;51.438;5.438;2023-12-28T05:05:14;100946.06;;;12.02;100.00
77793;BME280;66983;51.438;5.438;2023-12-28T05:07:40;100941.53;;;12.04;100.00
77793;BME280;66983;51.438;5.438;2023-12-28T05:10:06;100948.47;;;12.08;100.00
77793;BME280;66983;51.438;5.438;2023-12-28T05:12:32;100956.50;;;12.08;100.00
77793;BME280;66983;51.438;5.438;2023-12-28T05:14:57;100968.13;;;12.07;100.00
77793;BME280;66983;51.438;5.438;2023-12-28T05:17:23;100962.72;;;12.08;100.00
77793;BME280;66983;51.438;5.438;2023-12-28T05:19:48;100973.47;;;12.07;100.00
77793;BME280;66983;51.438;5.438;2023-12-28T05:22:14;100958.34;;;12.06;100.00
77793;BME280;66983;51.438;5.438;2023-12-28T05:24:39;100954.69;;;12.08;100.00
77793;BME280;66983;51.438;5.438;2023-12-28T05:27:05;100946.69;;;12.08;100.00
77793;BME280;66983;51.438;5.438;2023-12-28T05:29:31;100941.41;;;12.07;100.00
77793;BME280;66983;51.438;5.438;2023-12-28T05:31:56;100937.06;;;12.04;100.00
77793;BME280;66983;51.438;5.438;2023-12-28T05:34:22;100929.03;;;12.04;100.00
77793;BME280;66983;51.438;5.438;2023-12-28T05:36:47;100897.59;;;11.91;100.00
77793;BME280;66983;51.438;5.438;2023-12-28T05:39:13;100932.44;;;12.08;100.00
77793;BME280;66983;51.438;5.438;2023-12-28T05:41:41;100935.13;;;12.08;100.00
77793;BME280;66983;51.438;5.438;2023-12-28T05:44:06;100943.25;;;12.05;100.00
77793;BME280;66983;51.438;5.438;2023-12-28T05:46:32;100945.88;;;12.06;100.00
77793;BME280;66983;51.438;5.438;2023-12-28T05:48:58;100946.75;;;12.07;100.00
77793;BME280;66983;51.438;5.438;2023-12-28T05:51:23;100954.75;;;12.07;100.00
77793;BME280;66983;51.438;5.438;2023-12-28T05:53:49;100952.28;;;12.02;100.00
77793;BME280;66983;51.438;5.438;2023-12-28T05:56:14;100948.59;;;12.05;100.00
77793;BME280;66983;51.438;5.438;2023-12-28T05:58:40;100953.81;;;12.08;100.00
77793;BME280;66983;51.438;5.438;2023-12-28T06:01:06;100947.59;;;12.07;100.00
77793;BME280;66983;51.438;5.438;2023-12-28T06:03:32;100967.13;;;12.09;100.00
77793;BME280;66983;51.438;5.438;2023-12-28T06:05:57;100937.00;;;12.06;100.00
77793;BME280;66983;51.438;5.438;2023-12-28T06:08:23;100955.69;;;12.06;100.00
77793;BME280;66983;51.438;5.438;2023-12-28T06:10:49;100959.22;;;12.06;100.00
77793;BME280;66983;51.438;5.438;2023-12-28T06:13:15;100960.09;;;12.07;100.00
77793;BME280;66983;51.438;5.438;2023-12-28T06:15:40;100947.53;;;12.09;100.00
77793;BME280;66983;51.438;5.438;2023-12-28T06:18:06;100958.28;;;12.07;100.00
77793;BME280;66983;51.438;5.438;2023-12-28T06:20:32;100956.63;;;12.05;100.00
77793;BME280;66983;51.438;5.438;2023-12-28T06:22:57;100956.81;;;12.00;100.00
77793;BME280;66983;51.438;5.438;2023-12-28T06:25:23;100963.69;;;12.06;100.00
77793;BME280;66983;51.438;5.438;2023-12-28T06:27:48;100966.50;;;12.03;100.00
77793;BME280;66983;51.438;5.438;2023-12-28T06:30:14;100967.31;;;12.05;100.00
77793;BME280;66983;51.438;5.438;2023-12-28T06:32:40;100959.22;;;12.06;100.00
77793;BME280;66983;51.438;5.438;2023-12-28T06:35:06;100973.47;;;12.07;100.00
77793;BME280;66983;51.438;5.438;2023-12-28T06:37:31;100977.94;;;12.06;100.00
77793;BME280;66983;51.438;5.438;2023-12-28T06:39:57;100977.06;;;12.06;100.00
77793;BME280;66983;51.438;5.438;2023-12-28T06:42:22;100968.97;;;12.07;100.00
77793;BME280;66983;51.438;5.438;2023-12-28T06:44:48;100977.06;;;12.06;100.00
77793;BME280;66983;51.438;5.438;2023-12-28T06:47:13;100963.63;;;12.07;100.00
77793;BME280;66983;51.438;5.438;2023-12-28T06:49:39;101001.91;;;12.08;100.00
77793;BME280;66983;51.438;5.438;2023-12-28T06:52:05;100986.75;;;12.08;100.00
77793;BME280;66983;51.438;5.438;2023-12-28T06:54:30;100978.72;;;12.08;100.00
77793;BME280;66983;51.438;5.438;2023-12-28T06:56:56;100993.84;;;12.09;100.00
77793;BME280;66983;51.438;5.438;2023-12-28T06:59:21;100986.75;;;12.08;100.00
77793;BME280;66983;51.438;5.438;2023-12-28T07:01:47;100987.63;;;12.09;100.00
77793;BME280;66983;51.438;5.438;2023-12-28T07:04:13;100992.03;;;12.10;100.00
77793;BME280;66983;51.438;5.438;2023-12-28T07:06:39;100979.66;;;12.07;100.00
77793;BME280;66983;51.438;5.438;2023-12-28T07:09:05;100988.75;;;12.03;100.00
77793;BME280;66983;51.438;5.438;2023-12-28T07:11:31;100988.81;;;12.02;100.00
77793;BME280;66983;51.438;5.438;2023-12-28T07:13:56;100995.03;;;12.02;100.00
77793;BME280;66983;51.438;5.438;2023-12-28T07:16:22;100989.00;;;11.97;100.00
77793;BME280;66983;51.438;5.438;2023-12-28T07:18:47;100982.78;;;11.97;100.00
77793;BME280;66983;51.438;5.438;2023-12-28T07:21:13;100996.81;;;12.02;100.00
77793;BME280;66983;51.438;5.438;2023-12-28T07:23:39;101001.28;;;12.01;100.00
77793;BME280;66983;51.438;5.438;2023-12-28T07:26:04;101015.66;;;11.99;100.00
77793;BME280;66983;51.438;5.438;2023-12-28T07:28:30;101001.34;;;12.00;100.00
77793;BME280;66983;51.438;5.438;2023-12-28T07:30:56;101005.75;;;12.01;100.00
77793;BME280;66983;51.438;5.438;2023-12-28T07:33:21;101005.84;;;11.99;100.00
77793;BME280;66983;51.438;5.438;2023-12-28T07:36:05;101022.13;;;11.93;100.00
77793;BME280;66983;51.438;5.438;2023-12-28T07:38:31;101020.34;;;11.94;100.00
77793;BME280;66983;51.438;5.438;2023-12-28T07:40:57;101032.81;;;11.93;100.00
77793;BME280;66983;51.438;5.438;2023-12-28T07:43:22;101039.97;;;11.93;100.00
77793;BME280;66983;51.438;5.438;2023-12-28T07:45:48;101024.81;;;11.93;100.00
77793;BME280;66983;51.438;5.438;2023-12-28T07:48:13;101032.75;;;11.95;100.00
77793;BME280;66983;51.438;5.438;2023-12-28T07:50:39;101035.50;;;11.93;100.00
77793;BME280;66983;51.438;5.438;2023-12-28T07:53:04;101036.38;;;11.94;100.00
77793;BME280;66983;51.438;5.438;2023-12-28T07:55:30;101035.50;;;11.93;100.00
77793;BME280;66983;51.438;5.438;2023-12-28T07:57:55;101032.88;;;11.92;100.00
77793;BME280;66983;51.438;5.438;2023-12-28T08:00:21;101032.88;;;11.92;100.00
77793;BME280;66983;51.438;5.438;2023-12-28T08:02:46;101053.38;;;11.91;100.00
77793;BME280;66983;51.438;5.438;2023-12-28T08:05:12;101052.38;;;11.94;100.00
77793;BME280;66983;51.438;5.438;2023-12-28T08:07:37;101044.31;;;11.95;100.00
77793;BME280;66983;51.438;5.438;2023-12-28T08:10:03;101053.09;;;11.97;100.00
77793;BME280;66983;51.438;5.438;2023-12-28T08:12:29;101040.69;;;11.96;100.00
77793;BME280;66983;51.438;5.438;2023-12-28T08:14:55;101055.84;;;11.96;100.00
77793;BME280;66983;51.438;5.438;2023-12-28T08:17:21;101052.38;;;11.94;100.00
77793;BME280;66983;51.438;5.438;2023-12-28T08:19:46;101055.00;;;11.95;100.00
77793;BME280;66983;51.438;5.438;2023-12-28T08:22:12;101050.38;;;11.99;100.00
77793;BME280;66983;51.438;5.438;2023-12-28T08:24:37;101043.28;;;11.98;100.00
77793;BME280;66983;51.438;5.438;2023-12-28T08:27:03;101044.03;;;12.01;100.00
77793;BME280;66983;51.438;5.438;2023-12-28T08:29:29;101047.63;;;12.00;100.00
77793;BME280;66983;51.438;5.438;2023-12-28T08:31:54;101041.44;;;12.00;100.00
77793;BME280;66983;51.438;5.438;2023-12-28T08:34:21;101052.06;;;12.01;100.00
77793;BME280;66983;51.438;5.438;2023-12-28T08:36:46;101054.78;;;12.00;100.00
77793;BME280;66983;51.438;5.438;2023-12-28T08:39:12;101037.94;;;11.98;100.00
77793;BME280;66983;51.438;5.438;2023-12-28T08:41:37;101047.56;;;12.02;100.00
77793;BME280;66983;51.438;5.438;2023-12-28T08:44:03;101057.34;;;12.03;100.00
77793;BME280;66983;51.438;5.438;2023-12-28T08:46:28;101050.19;;;12.03;100.00
77793;BME280;66983;51.438;5.438;2023-12-28T08:48:54;101051.25;;;11.99;100.00
77793;BME280;66983;51.438;5.438;2023-12-28T08:51:20;101057.22;;;12.06;100.00
77793;BME280;66983;51.438;5.438;2023-12-28T08:53:46;101060.81;;;12.05;100.00
77793;BME280;66983;51.438;5.438;2023-12-28T08:56:20;101066.97;;;12.07;100.00
77793;BME280;66983;51.438;5.438;2023-12-28T08:58:47;101063.41;;;12.06;100.00
77793;BME280;66983;51.438;5.438;2023-12-28T09:01:20;101069.56;;;12.08;100.00
77793;BME280;66983;51.438;5.438;2023-12-28T09:03:50;101080.25;;;12.08;100.00
77793;BME280;66983;51.438;5.438;2023-12-28T09:06:17;101088.16;;;12.11;100.00
77793;BME280;66983;51.438;5.438;2023-12-28T09:08:44;101102.38;;;12.12;100.00
77793;BME280;66983;51.438;5.438;2023-12-28T09:11:13;101087.28;;;12.11;100.00
77793;BME280;66983;51.438;5.438;2023-12-28T09:13:39;101089.09;;;12.10;100.00
77793;BME280;66983;51.438;5.438;2023-12-28T09:16:10;101113.13;;;12.10;100.00
77793;BME280;66983;51.438;5.438;2023-12-28T09:18:36;101104.25;;;12.10;100.00
77793;BME280;66983;51.438;5.438;2023-12-28T09:21:06;101118.47;;;12.10;100.00
77793;BME280;66983;51.438;5.438;2023-12-28T09:23:32;101106.91;;;12.10;100.00
77793;BME280;66983;51.438;5.438;2023-12-28T09:25:59;101109.41;;;12.14;100.00
77793;BME280;66983;51.438;5.438;2023-12-28T09:28:25;101109.47;;;12.13;100.00
77793;BME280;66983;51.438;5.438;2023-12-28T09:30:50;101102.31;;;12.13;100.00
77793;BME280;66983;51.438;5.438;2023-12-28T09:33:16;101112.25;;;12.10;100.00
77793;BME280;66983;51.438;5.438;2023-12-28T09:35:42;101109.47;;;12.13;100.00
77793;BME280;66983;51.438;5.438;2023-12-28T09:38:08;101112.38;;;12.07;100.00
77793;BME280;66983;51.438;5.438;2023-12-28T09:40:35;101107.66;;;12.13;100.00
77793;BME280;66983;51.438;5.438;2023-12-28T09:43:22;101116.50;;;12.15;100.00
77793;BME280;66983;51.438;5.438;2023-12-28T09:45:49;101115.63;;;12.15;100.00
77793;BME280;66983;51.438;5.438;2023-12-28T09:48:17;101127.19;;;12.15;100.00
77793;BME280;66983;51.438;5.438;2023-12-28T09:50:50;101135.25;;;12.14;100.00
77793;BME280;66983;51.438;5.438;2023-12-28T09:53:16;101115.34;;;11.99;100.00
77793;BME280;66983;51.438;5.438;2023-12-28T09:56:02;101128.16;;;12.13;100.00
77793;BME280;66983;51.438;5.438;2023-12-28T09:58:28;101128.91;;;12.16;100.00
77793;BME280;66983;51.438;5.438;2023-12-28T10:00:55;101138.75;;;12.16;100.00
77793;BME280;66983;51.438;5.438;2023-12-28T10:03:22;101144.09;;;12.16;100.00
77793;BME280;66983;51.438;5.438;2023-12-28T10:05:47;101145.81;;;12.17;100.00
77793;BME280;66983;51.438;5.438;2023-12-28T10:08:14;101151.16;;;12.17;100.00
77793;BME280;66983;51.438;5.438;2023-12-28T10:10:44;101155.75;;;12.13;100.00
77793;BME280;66983;51.438;5.438;2023-12-28T10:13:17;101157.31;;;12.19;100.00
77793;BME280;66983;51.438;5.438;2023-12-28T10:15:43;101154.78;;;12.16;100.00
77793;BME280;66983;51.438;5.438;2023-12-28T10:18:09;101151.22;;;12.15;100.00
77793;BME280;66983;51.438;5.438;2023-12-28T10:20:34;101147.56;;;12.18;100.00
77793;BME280;66983;51.438;5.438;2023-12-28T10:23:00;101151.28;;;12.14;100.00
77793;BME280;66983;51.438;5.438;2023-12-28T10:25:31;101135.50;;;12.08;100.00
77793;BME280;66983;51.438;5.438;2023-12-28T10:27:57;101145.88;;;12.15;100.00
77793;BME280;66983;51.438;5.438;2023-12-28T10:30:24;101146.75;;;12.16;100.00
77793;BME280;66983;51.438;5.438;2023-12-28T10:32:49;101144.91;;;12.18;100.00
77793;BME280;66983;51.438;5.438;2023-12-28T10:35:15;101138.63;;;12.19;100.00
77793;BME280;66983;51.438;5.438;2023-12-28T10:37:42;101138.84;;;12.13;100.00
77793;BME280;66983;51.438;5.438;2023-12-28T10:40:13;101141.41;;;12.16;100.00
77793;BME280;66983;51.438;5.438;2023-12-28T10:43:05;101139.59;;;12.16;100.00
77793;BME280;66983;51.438;5.438;2023-12-28T10:45:35;101118.72;;;12.04;100.00
77793;BME280;66983;51.438;5.438;2023-12-28T10:48:12;101136.66;;;12.22;100.00
77793;BME280;66983;51.438;5.438;2023-12-28T10:50:43;101144.50;;;12.27;100.00
77793;BME280;66983;51.438;5.438;2023-12-28T10:56:32;101125.72;;;12.29;100.00
77793;BME280;66983;51.438;5.438;2023-12-28T11:01:51;101089.66;;;12.18;100.00
77793;BME280;66983;51.438;5.438;2023-12-28T11:04:23;101120.31;;;12.30;100.00
77793;BME280;66983;51.438;5.438;2023-12-28T11:06:54;101113.28;;;12.28;100.00
77793;BME280;66983;51.438;5.438;2023-12-28T11:09:22;101128.47;;;12.27;100.00
77793;BME280;66983;51.438;5.438;2023-12-28T11:11:49;101111.38;;;12.31;100.00
77793;BME280;66983;51.438;5.438;2023-12-28T11:14:17;101114.97;;;12.30;100.00
77793;BME280;66983;51.438;5.438;2023-12-28T11:16:44;101116.72;;;12.31;100.00
77793;BME280;66983;51.438;5.438;2023-12-28T11:19:11;101118.47;;;12.32;100.00
77793;BME280;66983;51.438;5.438;2023-12-28T11:21:38;101118.38;;;12.34;100.00
77793;BME280;66983;51.438;5.438;2023-12-28T11:24:05;101121.81;;;12.37;100.00
77793;BME280;66983;51.438;5.438;2023-12-28T11:26:31;101124.47;;;12.37;100.00
77793;BME280;66983;51.438;5.438;2023-12-28T11:29:01;101117.41;;;12.36;100.00
77793;BME280;66983;51.438;5.438;2023-12-28T11:31:27;101117.47;;;12.35;100.00
77793;BME280;66983;51.438;5.438;2023-12-28T11:33:52;101114.47;;;12.42;100.00
77793;BME280;66983;51.438;5.438;2023-12-28T11:36:40;101096.69;;;12.41;100.00
77793;BME280;66983;51.438;5.438;2023-12-28T11:39:07;101112.84;;;12.38;100.00
77793;BME280;66983;51.438;5.438;2023-12-28T11:41:33;101095.22;;;12.34;100.00
77793;BME280;66983;51.438;5.438;2023-12-28T11:44:04;101100.38;;;12.39;100.00
77793;BME280;66983;51.438;5.438;2023-12-28T11:46:35;101083.44;;;12.38;100.00
77793;BME280;66983;51.438;5.438;2023-12-28T11:49:08;101090.53;;;12.39;100.00
77793;BME280;66983;51.438;5.438;2023-12-28T11:51:39;101070.97;;;12.39;100.00
77793;BME280;66983;51.438;5.438;2023-12-28T11:54:06;101079.03;;;12.37;100.00
77793;BME280;66983;51.438;5.438;2023-12-28T11:56:32;101073.81;;;12.34;100.00
77793;BME280;66983;51.438;5.438;2023-12-28T11:59:02;101075.56;;;12.35;100.00
77793;BME280;66983;51.438;5.438;2023-12-28T12:01:27;101071.16;;;12.34;100.00
77793;BME280;66983;51.438;5.438;2023-12-28T12:03:53;101069.28;;;12.36;100.00
77793;BME280;66983;51.438;5.438;2023-12-28T12:06:19;101078.09;;;12.38;100.00
77793;BME280;66983;51.438;5.438;2023-12-28T12:08:48;101084.25;;;12.40;100.00
77793;BME280;66983;51.438;5.438;2023-12-28T12:11:17;101073.63;;;12.39;100.00
77793;BME280;66983;51.438;5.438;2023-12-28T12:13:45;101071.69;;;12.42;100.00
77793;BME280;66983;51.438;5.438;2023-12-28T12:16:14;101055.78;;;12.39;100.00
77793;BME280;66983;51.438;5.438;2023-12-28T12:18:39;101061.13;;;12.39;100.00
77793;BME280;66983;51.438;5.438;2023-12-28T12:21:05;101064.63;;;12.41;100.00
77793;BME280;66983;51.438;5.438;2023-12-28T12:23:31;101060.28;;;12.39;100.00
77793;BME280;66983;51.438;5.438;2023-12-28T12:25:57;101054.91;;;12.39;100.00
77793;BME280;66983;51.438;5.438;2023-12-28T12:28:23;101047.72;;;12.41;100.00
77793;BME280;66983;51.438;5.438;2023-12-28T12:30:54;101046.78;;;12.42;100.00
77793;BME280;66983;51.438;5.438;2023-12-28T12:33:21;101034.66;;;12.33;100.00
77793;BME280;66983;51.438;5.438;2023-12-28T12:35:47;101039.81;;;12.38;100.00
77793;BME280;66983;51.438;5.438;2023-12-28T12:38:13;101035.34;;;12.38;100.00
77793;BME280;66983;51.438;5.438;2023-12-28T12:40:38;101046.97;;;12.37;100.00
77793;BME280;66983;51.438;5.438;2023-12-28T12:43:05;101033.72;;;12.34;100.00
77793;BME280;66983;51.438;5.438;2023-12-28T12:45:34;101026.38;;;12.39;100.00
77793;BME280;66983;51.438;5.438;2023-12-28T12:48:04;101038.63;;;12.45;100.00